sensor_id;sensor_type;location;lat;lon;timestamp;temperature;humidity
4687;DHT22;2357;47.316;-1.348;2023-03-23T00:00:44;12.20;99.90
4687;DHT22;2357;47.316;-1.348;2023-03-23T00:03:10;12.20;99.90
4687;DHT22;2357;47.316;-1.348;2023-03-23T00:05:35;12.20;99.90
4687;DHT22;2357;47.316;-1.348;2023-03-23T00:08:02;12.10;99.90
4687;DHT22;2357;47.316;-1.348;2023-03-23T00:10:28;12.10;99.90
4687;DHT22;2357;47.316;-1.348;2023-03-23T00:12:58;12.10;99.90
4687;DHT22;2357;47.316;-1.348;2023-03-23T00:15:28;12.10;99.90
4687;DHT22;2357;47.316;-1.348;2023-03-23T00:17:59;12.10;99.90
4687;DHT22;2357;47.316;-1.348;2023-03-23T00:20:30;12.10;99.90
4687;DHT22;2357;47.316;-1.348;2023-03-23T00:22:55;12.00;99.90
4687;DHT22;2357;47.316;-1.348;2023-03-23T00:25:25;12.00;99.90
4687;DHT22;2357;47.316;-1.348;2023-03-23T00:27:51;12.00;99.90
4687;DHT22;2357;47.316;-1.348;2023-03-23T00:30:17;12.00;99.90
4687;DHT22;2357;47.316;-1.348;2023-03-23T00:32:43;11.90;99.90
4687;DHT22;2357;47.316;-1.348;2023-03-23T00:35:09;11.90;99.90
4687;DHT22;2357;47.316;-1.348;2023-03-23T00:37:34;11.90;99.90
4687;DHT22;2357;47.316;-1.348;2023-03-23T00:40:02;11.90;99.90
4687;DHT22;2357;47.316;-1.348;2023-03-23T00:42:32;11.90;99.90
4687;DHT22;2357;47.316;-1.348;2023-03-23T00:45:02;11.90;99.90
4687;DHT22;2357;47.316;-1.348;2023-03-23T00:47:28;11.90;99.90
4687;DHT22;2357;47.316;-1.348;2023-03-23T00:49:54;11.90;99.90
4687;DHT22;2357;47.316;-1.348;2023-03-23T00:52:21;11.80;99.90
4687;DHT22;2357;47.316;-1.348;2023-03-23T00:54:47;11.80;99.90
4687;DHT22;2357;47.316;-1.348;2023-03-23T00:57:13;11.90;99.90
4687;DHT22;2357;47.316;-1.348;2023-03-23T00:59:38;11.80;99.90
4687;DHT22;2357;47.316;-1.348;2023-03-23T01:02:04;11.70;99.90
4687;DHT22;2357;47.316;-1.348;2023-03-23T01:04:30;11.70;99.90
4687;DHT22;2357;47.316;-1.348;2023-03-23T01:06:57;11.70;99.90
4687;DHT22;2357;47.316;-1.348;2023-03-23T01:09:23;11.70;99.90
4687;DHT22;2357;47.316;-1.348;2023-03-23T01:11:50;11.70;99.90
4687;DHT22;2357;47.316;-1.348;2023-03-23T01:14:17;11.70;99.90
4687;DHT22;2357;47.316;-1.348;2023-03-23T01:16:44;11.70;99.90
4687;DHT22;2357;47.316;-1.348;2023-03-23T01:19:10;11.70;99.90
4687;DHT22;2357;47.316;-1.348;2023-03-23T01:21:36;11.60;99.90
4687;DHT22;2357;47.316;-1.348;2023-03-23T01:24:02;11.50;99.90
4687;DHT22;2357;47.316;-1.348;2023-03-23T01:26:28;11.50;99.90
4687;DHT22;2357;47.316;-1.348;2023-03-23T01:28:54;11.50;99.90
4687;DHT22;2357;47.316;-1.348;2023-03-23T01:31:23;11.50;99.90
4687;DHT22;2357;47.316;-1.348;2023-03-23T01:33:49;11.40;99.90
4687;DHT22;2357;47.316;-1.348;2023-03-23T01:36:24;11.40;99.90
4687;DHT22;2357;47.316;-1.348;2023-03-23T01:38:52;11.40;99.90
4687;DHT22;2357;47.316;-1.348;2023-03-23T01:41:19;11.40;99.90
4687;DHT22;2357;47.316;-1.348;2023-03-23T01:44:00;11.40;99.90
4687;DHT22;2357;47.316;-1.348;2023-03-23T01:46:28;11.40;99.90
4687;DHT22;2357;47.316;-1.348;2023-03-23T01:48:56;11.30;99.90
4687;DHT22;2357;47.316;-1.348;2023-03-23T01:51:24;11.30;99.90
4687;DHT22;2357;47.316;-1.348;2023-03-23T01:53:55;11.30;99.90
4687;DHT22;2357;47.316;-1.348;2023-03-23T01:56:25;11.30;99.90
4687;DHT22;2357;47.316;-1.348;2023-03-23T01:58:53;11.30;99.90
4687;DHT22;2357;47.316;-1.348;2023-03-23T02:01:19;11.30;99.90
4687;DHT22;2357;47.316;-1.348;2023-03-23T02:03:47;11.30;99.90
4687;DHT22;2357;47.316;-1.348;2023-03-23T02:06:14;11.30;99.90
4687;DHT22;2357;47.316;-1.348;2023-03-23T02:08:41;11.30;99.90
4687;DHT22;2357;47.316;-1.348;2023-03-23T02:11:14;11.30;99.90
4687;DHT22;2357;47.316;-1.348;2023-03-23T02:13:41;11.30;99.90
4687;DHT22;2357;47.316;-1.348;2023-03-23T02:16:31;11.30;99.90
4687;DHT22;2357;47.316;-1.348;2023-03-23T02:19:13;11.30;99.90
4687;DHT22;2357;47.316;-1.348;2023-03-23T02:35:28;11.40;99.90
4687;DHT22;2357;47.316;-1.348;2023-03-23T02:38:22;11.40;99.90
4687;DHT22;2357;47.316;-1.348;2023-03-23T02:40:50;11.40;99.90
4687;DHT22;2357;47.316;-1.348;2023-03-23T02:43:22;11.40;99.90
4687;DHT22;2357;47.316;-1.348;2023-03-23T02:45:50;11.40;99.90
4687;DHT22;2357;47.316;-1.348;2023-03-23T02:48:19;11.50;99.90
4687;DHT22;2357;47.316;-1.348;2023-03-23T02:50:50;11.50;99.90
4687;DHT22;2357;47.316;-1.348;2023-03-23T02:53:20;11.50;99.90
4687;DHT22;2357;47.316;-1.348;2023-03-23T02:55:47;11.50;99.90
4687;DHT22;2357;47.316;-1.348;2023-03-23T02:58:13;11.50;99.90
4687;DHT22;2357;47.316;-1.348;2023-03-23T03:00:40;11.60;99.90
4687;DHT22;2357;47.316;-1.348;2023-03-23T03:03:12;11.60;99.90
4687;DHT22;2357;47.316;-1.348;2023-03-23T03:09:26;11.70;99.90
4687;DHT22;2357;47.316;-1.348;2023-03-23T03:11:20;11.80;99.90
4687;DHT22;2357;47.316;-1.348;2023-03-23T03:14:10;11.80;99.90
4687;DHT22;2357;47.316;-1.348;2023-03-23T03:17:00;11.80;99.90
4687;DHT22;2357;47.316;-1.348;2023-03-23T03:19:30;11.90;99.90
4687;DHT22;2357;47.316;-1.348;2023-03-23T03:21:59;11.90;99.90
4687;DHT22;2357;47.316;-1.348;2023-03-23T03:24:27;11.90;99.90
4687;DHT22;2357;47.316;-1.348;2023-03-23T03:26:55;11.90;99.90
4687;DHT22;2357;47.316;-1.348;2023-03-23T03:29:28;11.90;99.90
4687;DHT22;2357;47.316;-1.348;2023-03-23T03:31:56;12.00;99.90
4687;DHT22;2357;47.316;-1.348;2023-03-23T03:34:24;12.00;99.90
4687;DHT22;2357;47.316;-1.348;2023-03-23T03:36:51;11.90;99.90
4687;DHT22;2357;47.316;-1.348;2023-03-23T03:39:18;11.90;99.90
4687;DHT22;2357;47.316;-1.348;2023-03-23T03:41:46;11.90;99.90
4687;DHT22;2357;47.316;-1.348;2023-03-23T03:44:12;11.90;99.90
4687;DHT22;2357;47.316;-1.348;2023-03-23T03:46:38;11.90;99.90
4687;DHT22;2357;47.316;-1.348;2023-03-23T03:49:06;11.80;99.90
4687;DHT22;2357;47.316;-1.348;2023-03-23T03:51:33;11.80;99.90
4687;DHT22;2357;47.316;-1.348;2023-03-23T03:53:59;11.80;99.90
4687;DHT22;2357;47.316;-1.348;2023-03-23T03:56:25;11.80;99.90
4687;DHT22;2357;47.316;-1.348;2023-03-23T03:58:52;11.80;99.90
4687;DHT22;2357;47.316;-1.348;2023-03-23T04:01:19;11.80;99.90
4687;DHT22;2357;47.316;-1.348;2023-03-23T04:03:48;11.80;99.90
4687;DHT22;2357;47.316;-1.348;2023-03-23T04:06:14;11.80;99.90
4687;DHT22;2357;47.316;-1.348;2023-03-23T04:08:40;11.80;99.90
4687;DHT22;2357;47.316;-1.348;2023-03-23T04:11:11;11.80;99.90
4687;DHT22;2357;47.316;-1.348;2023-03-23T04:13:38;11.80;99.90
4687;DHT22;2357;47.316;-1.348;2023-03-23T04:16:04;11.80;99.90
4687;DHT22;2357;47.316;-1.348;2023-03-23T04:18:30;11.80;99.90
4687;DHT22;2357;47.316;-1.348;2023-03-23T04:20:58;11.80;99.90
4687;DHT22;2357;47.316;-1.348;2023-03-23T04:23:25;11.80;99.90
4687;DHT22;2357;47.316;-1.348;2023-03-23T04:25:52;11.80;99.90
4687;DHT22;2357;47.316;-1.348;2023-03-23T04:28:23;11.80;99.90
4687;DHT22;2357;47.316;-1.348;2023-03-23T04:30:51;11.80;99.90
4687;DHT22;2357;47.316;-1.348;2023-03-23T04:33:23;11.80;99.90
4687;DHT22;2357;47.316;-1.348;2023-03-23T04:35:51;11.70;99.90
4687;DHT22;2357;47.316;-1.348;2023-03-23T04:38:19;11.70;99.90
4687;DHT22;2357;47.316;-1.348;2023-03-23T04:40:47;11.70;99.90
4687;DHT22;2357;47.316;-1.348;2023-03-23T04:43:13;11.70;99.90
4687;DHT22;2357;47.316;-1.348;2023-03-23T04:45:40;11.70;99.90
4687;DHT22;2357;47.316;-1.348;2023-03-23T04:48:11;11.60;99.90
4687;DHT22;2357;47.316;-1.348;2023-03-23T04:50:37;11.60;99.90
4687;DHT22;2357;47.316;-1.348;2023-03-23T04:53:04;11.70;99.90
4687;DHT22;2357;47.316;-1.348;2023-03-23T04:55:31;11.70;99.90
4687;DHT22;2357;47.316;-1.348;2023-03-23T04:58:02;11.60;99.90
4687;DHT22;2357;47.316;-1.348;2023-03-23T05:00:28;11.60;99.90
4687;DHT22;2357;47.316;-1.348;2023-03-23T05:02:53;11.70;99.90
4687;DHT22;2357;47.316;-1.348;2023-03-23T05:05:21;11.60;99.90
4687;DHT22;2357;47.316;-1.348;2023-03-23T05:07:48;11.60;99.90
4687;DHT22;2357;47.316;-1.348;2023-03-23T05:10:15;11.50;99.90
4687;DHT22;2357;47.316;-1.348;2023-03-23T05:12:41;11.50;99.90
4687;DHT22;2357;47.316;-1.348;2023-03-23T05:15:08;11.50;99.90
4687;DHT22;2357;47.316;-1.348;2023-03-23T05:17:35;11.50;99.90
4687;DHT22;2357;47.316;-1.348;2023-03-23T05:20:01;11.50;99.90
4687;DHT22;2357;47.316;-1.348;2023-03-23T05:22:30;11.50;99.90
4687;DHT22;2357;47.316;-1.348;2023-03-23T05:24:58;11.50;99.90
4687;DHT22;2357;47.316;-1.348;2023-03-23T05:27:24;11.40;99.90
4687;DHT22;2357;47.316;-1.348;2023-03-23T05:29:53;11.40;99.90
4687;DHT22;2357;47.316;-1.348;2023-03-23T05:32:19;11.40;99.90
4687;DHT22;2357;47.316;-1.348;2023-03-23T05:34:44;11.40;99.90
4687;DHT22;2357;47.316;-1.348;2023-03-23T05:37:12;11.40;99.90
4687;DHT22;2357;47.316;-1.348;2023-03-23T05:39:39;11.40;99.90
4687;DHT22;2357;47.316;-1.348;2023-03-23T05:42:05;11.40;99.90
4687;DHT22;2357;47.316;-1.348;2023-03-23T05:44:31;11.40;99.90
4687;DHT22;2357;47.316;-1.348;2023-03-23T05:46:57;11.40;99.90
4687;DHT22;2357;47.316;-1.348;2023-03-23T05:49:23;11.30;99.90
4687;DHT22;2357;47.316;-1.348;2023-03-23T05:51:49;11.30;99.90
4687;DHT22;2357;47.316;-1.348;2023-03-23T05:54:16;11.30;99.90
4687;DHT22;2357;47.316;-1.348;2023-03-23T05:56:42;11.30;99.90
4687;DHT22;2357;47.316;-1.348;2023-03-23T05:59:08;11.30;99.90
4687;DHT22;2357;47.316;-1.348;2023-03-23T06:01:35;11.30;99.90
4687;DHT22;2357;47.316;-1.348;2023-03-23T06:04:01;11.20;99.90
4687;DHT22;2357;47.316;-1.348;2023-03-23T06:06:27;11.30;99.90
4687;DHT22;2357;47.316;-1.348;2023-03-23T06:08:55;11.20;99.90
4687;DHT22;2357;47.316;-1.348;2023-03-23T06:11:20;11.30;99.90
4687;DHT22;2357;47.316;-1.348;2023-03-23T06:13:46;11.30;99.90
4687;DHT22;2357;47.316;-1.348;2023-03-23T06:16:12;11.10;99.90
4687;DHT22;2357;47.316;-1.348;2023-03-23T06:18:37;11.10;99.90
4687;DHT22;2357;47.316;-1.348;2023-03-23T06:21:06;11.10;99.90
4687;DHT22;2357;47.316;-1.348;2023-03-23T06:23:32;11.20;99.90
4687;DHT22;2357;47.316;-1.348;2023-03-23T06:26:00;11.20;99.90
4687;DHT22;2357;47.316;-1.348;2023-03-23T06:28:27;11.10;99.90
4687;DHT22;2357;47.316;-1.348;2023-03-23T06:30:53;11.20;99.90
4687;DHT22;2357;47.316;-1.348;2023-03-23T06:33:19;11.10;99.90
4687;DHT22;2357;47.316;-1.348;2023-03-23T06:35:45;11.10;99.90
4687;DHT22;2357;47.316;-1.348;2023-03-23T06:38:11;11.10;99.90
4687;DHT22;2357;47.316;-1.348;2023-03-23T06:40:37;11.20;99.90
4687;DHT22;2357;47.316;-1.348;2023-03-23T06:43:03;11.10;99.90
4687;DHT22;2357;47.316;-1.348;2023-03-23T06:45:33;11.10;99.90
4687;DHT22;2357;47.316;-1.348;2023-03-23T06:47:58;11.20;99.90
4687;DHT22;2357;47.316;-1.348;2023-03-23T06:50:24;11.20;99.90
4687;DHT22;2357;47.316;-1.348;2023-03-23T06:52:50;11.30;99.90
4687;DHT22;2357;47.316;-1.348;2023-03-23T06:55:17;11.30;99.90
4687;DHT22;2357;47.316;-1.348;2023-03-23T06:57:43;11.20;99.90
4687;DHT22;2357;47.316;-1.348;2023-03-23T07:00:11;11.30;99.90
4687;DHT22;2357;47.316;-1.348;2023-03-23T07:02:39;11.40;99.90
4687;DHT22;2357;47.316;-1.348;2023-03-23T07:05:07;11.40;99.90
4687;DHT22;2357;47.316;-1.348;2023-03-23T07:07:32;11.40;99.90
4687;DHT22;2357;47.316;-1.348;2023-03-23T07:09:58;11.50;99.90
4687;DHT22;2357;47.316;-1.348;2023-03-23T07:12:24;11.50;99.90
4687;DHT22;2357;47.316;-1.348;2023-03-23T07:14:49;11.50;99.90
4687;DHT22;2357;47.316;-1.348;2023-03-23T07:17:15;11.50;99.90
4687;DHT22;2357;47.316;-1.348;2023-03-23T07:19:41;11.50;99.90
4687;DHT22;2357;47.316;-1.348;2023-03-23T07:22:07;11.60;99.90
4687;DHT22;2357;47.316;-1.348;2023-03-23T07:24:34;11.60;99.90
4687;DHT22;2357;47.316;-1.348;2023-03-23T07:27:00;11.70;99.90
4687;DHT22;2357;47.316;-1.348;2023-03-23T07:29:25;11.70;99.90
4687;DHT22;2357;47.316;-1.348;2023-03-23T07:31:53;11.80;99.90
4687;DHT22;2357;47.316;-1.348;2023-03-23T07:34:20;11.90;99.90
4687;DHT22;2357;47.316;-1.348;2023-03-23T07:36:46;11.90;99.90
4687;DHT22;2357;47.316;-1.348;2023-03-23T07:39:12;11.90;99.90
4687;DHT22;2357;47.316;-1.348;2023-03-23T07:41:38;12.00;99.90
4687;DHT22;2357;47.316;-1.348;2023-03-23T07:44:04;12.00;99.90
4687;DHT22;2357;47.316;-1.348;2023-03-23T07:46:31;12.10;99.90
4687;DHT22;2357;47.316;-1.348;2023-03-23T07:48:56;12.10;99.90
4687;DHT22;2357;47.316;-1.348;2023-03-23T07:51:23;12.20;99.90
4687;DHT22;2357;47.316;-1.348;2023-03-23T07:53:48;12.20;99.90
4687;DHT22;2357;47.316;-1.348;2023-03-23T07:56:15;12.30;99.90
4687;DHT22;2357;47.316;-1.348;2023-03-23T07:58:44;12.30;99.90
4687;DHT22;2357;47.316;-1.348;2023-03-23T08:01:10;12.30;99.90
4687;DHT22;2357;47.316;-1.348;2023-03-23T08:03:36;12.30;99.90
4687;DHT22;2357;47.316;-1.348;2023-03-23T08:06:03;12.30;99.90
4687;DHT22;2357;47.316;-1.348;2023-03-23T08:08:29;12.40;99.90
4687;DHT22;2357;47.316;-1.348;2023-03-23T08:10:55;12.40;99.90
4687;DHT22;2357;47.316;-1.348;2023-03-23T08:13:21;12.50;99.90
4687;DHT22;2357;47.316;-1.348;2023-03-23T08:15:47;12.50;99.90
4687;DHT22;2357;47.316;-1.348;2023-03-23T08:18:13;12.60;99.90
4687;DHT22;2357;47.316;-1.348;2023-03-23T08:20:40;12.60;99.90
4687;DHT22;2357;47.316;-1.348;2023-03-23T08:23:06;12.70;99.90
4687;DHT22;2357;47.316;-1.348;2023-03-23T08:25:32;12.70;99.90
4687;DHT22;2357;47.316;-1.348;2023-03-23T08:27:59;12.70;99.90
4687;DHT22;2357;47.316;-1.348;2023-03-23T08:30:27;12.80;99.90
4687;DHT22;2357;47.316;-1.348;2023-03-23T08:32:58;12.90;99.90
4687;DHT22;2357;47.316;-1.348;2023-03-23T08:35:25;12.90;99.90
4687;DHT22;2357;47.316;-1.348;2023-03-23T08:37:51;12.90;99.90
4687;DHT22;2357;47.316;-1.348;2023-03-23T08:40:20;12.90;99.90
4687;DHT22;2357;47.316;-1.348;2023-03-23T08:42:47;13.00;99.90
4687;DHT22;2357;47.316;-1.348;2023-03-23T08:45:15;13.00;99.90
4687;DHT22;2357;47.316;-1.348;2023-03-23T08:47:43;13.10;99.90
4687;DHT22;2357;47.316;-1.348;2023-03-23T08:50:13;13.10;99.90
4687;DHT22;2357;47.316;-1.348;2023-03-23T08:52:39;13.20;99.90
4687;DHT22;2357;47.316;-1.348;2023-03-23T08:55:05;13.20;99.90
4687;DHT22;2357;47.316;-1.348;2023-03-23T08:57:34;13.30;99.90
4687;DHT22;2357;47.316;-1.348;2023-03-23T09:00:05;13.40;99.90
4687;DHT22;2357;47.316;-1.348;2023-03-23T09:02:52;13.50;99.90
4687;DHT22;2357;47.316;-1.348;2023-03-23T09:05:21;13.60;99.90
4687;DHT22;2357;47.316;-1.348;2023-03-23T09:07:49;13.60;99.90
4687;DHT22;2357;47.316;-1.348;2023-03-23T09:10:16;13.60;99.90
4687;DHT22;2357;47.316;-1.348;2023-03-23T09:12:43;13.60;99.90
4687;DHT22;2357;47.316;-1.348;2023-03-23T09:15:11;13.60;99.90
4687;DHT22;2357;47.316;-1.348;2023-03-23T09:17:39;13.70;99.90
4687;DHT22;2357;47.316;-1.348;2023-03-23T09:20:06;13.70;99.90
4687;DHT22;2357;47.316;-1.348;2023-03-23T09:22:40;13.70;99.90
4687;DHT22;2357;47.316;-1.348;2023-03-23T09:25:07;13.70;99.90
4687;DHT22;2357;47.316;-1.348;2023-03-23T09:27:34;13.80;99.90
4687;DHT22;2357;47.316;-1.348;2023-03-23T09:30:05;13.80;99.90
4687;DHT22;2357;47.316;-1.348;2023-03-23T09:32:33;13.70;99.90
4687;DHT22;2357;47.316;-1.348;2023-03-23T09:35:01;13.70;99.90
4687;DHT22;2357;47.316;-1.348;2023-03-23T09:37:27;13.60;99.90
4687;DHT22;2357;47.316;-1.348;2023-03-23T09:39:53;13.60;99.90
4687;DHT22;2357;47.316;-1.348;2023-03-23T09:42:37;13.50;99.90
4687;DHT22;2357;47.316;-1.348;2023-03-23T09:48:19;13.70;99.90
4687;DHT22;2357;47.316;-1.348;2023-03-23T09:50:52;13.80;99.90
4687;DHT22;2357;47.316;-1.348;2023-03-23T09:53:24;14.00;99.90
4687;DHT22;2357;47.316;-1.348;2023-03-23T09:55:53;14.20;99.90
4687;DHT22;2357;47.316;-1.348;2023-03-23T10:01:21;14.40;99.90
4687;DHT22;2357;47.316;-1.348;2023-03-23T10:03:55;14.50;99.90
4687;DHT22;2357;47.316;-1.348;2023-03-23T10:06:23;14.50;99.90
4687;DHT22;2357;47.316;-1.348;2023-03-23T10:08:52;14.60;99.90
4687;DHT22;2357;47.316;-1.348;2023-03-23T10:11:33;14.60;99.90
4687;DHT22;2357;47.316;-1.348;2023-03-23T10:16:42;14.50;99.90
4687;DHT22;2357;47.316;-1.348;2023-03-23T10:19:11;14.50;99.90
4687;DHT22;2357;47.316;-1.348;2023-03-23T10:21:41;14.50;99.90
4687;DHT22;2357;47.316;-1.348;2023-03-23T10:24:10;14.60;99.90
4687;DHT22;2357;47.316;-1.348;2023-03-23T10:29:21;14.60;99.90
4687;DHT22;2357;47.316;-1.348;2023-03-23T10:32:00;14.60;99.90
4687;DHT22;2357;47.316;-1.348;2023-03-23T10:37:20;14.90;99.90
4687;DHT22;2357;47.316;-1.348;2023-03-23T10:39:55;14.90;99.90
4687;DHT22;2357;47.316;-1.348;2023-03-23T10:42:29;14.90;99.90
4687;DHT22;2357;47.316;-1.348;2023-03-23T10:44:59;15.10;99.90
4687;DHT22;2357;47.316;-1.348;2023-03-23T10:47:25;15.20;99.90
4687;DHT22;2357;47.316;-1.348;2023-03-23T10:49:56;15.20;99.90
4687;DHT22;2357;47.316;-1.348;2023-03-23T10:52:38;15.30;99.90
4687;DHT22;2357;47.316;-1.348;2023-03-23T10:55:17;15.50;99.90
4687;DHT22;2357;47.316;-1.348;2023-03-23T10:57:45;15.70;99.90
4687;DHT22;2357;47.316;-1.348;2023-03-23T11:02:42;15.50;99.90
4687;DHT22;2357;47.316;-1.348;2023-03-23T11:05:19;15.50;99.90
4687;DHT22;2357;47.316;-1.348;2023-03-23T11:07:56;15.50;99.90
4687;DHT22;2357;47.316;-1.348;2023-03-23T11:10:35;15.60;99.90
4687;DHT22;2357;47.316;-1.348;2023-03-23T11:13:01;15.70;99.90
4687;DHT22;2357;47.316;-1.348;2023-03-23T11:15:35;15.70;99.90
4687;DHT22;2357;47.316;-1.348;2023-03-23T11:18:10;15.70;99.90
4687;DHT22;2357;47.316;-1.348;2023-03-23T11:20:41;15.60;99.90
4687;DHT22;2357;47.316;-1.348;2023-03-23T11:23:29;15.60;99.90
4687;DHT22;2357;47.316;-1.348;2023-03-23T11:26:06;15.50;99.90
4687;DHT22;2357;47.316;-1.348;2023-03-23T11:28:35;15.60;99.90
4687;DHT22;2357;47.316;-1.348;2023-03-23T11:31:03;15.80;99.90
4687;DHT22;2357;47.316;-1.348;2023-03-23T11:33:51;15.80;99.90
4687;DHT22;2357;47.316;-1.348;2023-03-23T11:36:18;15.80;99.90
4687;DHT22;2357;47.316;-1.348;2023-03-23T11:38:45;15.80;99.90
4687;DHT22;2357;47.316;-1.348;2023-03-23T11:41:12;15.70;99.90
4687;DHT22;2357;47.316;-1.348;2023-03-23T11:43:45;15.80;99.90
4687;DHT22;2357;47.316;-1.348;2023-03-23T11:56:35;15.90;99.90
4687;DHT22;2357;47.316;-1.348;2023-03-23T11:59:02;15.90;99.90
4687;DHT22;2357;47.316;-1.348;2023-03-23T12:10:16;16.00;99.90
4687;DHT22;2357;47.316;-1.348;2023-03-23T12:13:35;16.10;99.90
4687;DHT22;2357;47.316;-1.348;2023-03-23T12:23:28;16.10;99.90
4687;DHT22;2357;47.316;-1.348;2023-03-23T12:26:14;16.20;99.90
4687;DHT22;2357;47.316;-1.348;2023-03-23T12:29:13;16.20;99.90
4687;DHT22;2357;47.316;-1.348;2023-03-23T12:35:06;16.20;99.90
4687;DHT22;2357;47.316;-1.348;2023-03-23T12:37:59;16.20;99.90
4687;DHT22;2357;47.316;-1.348;2023-03-23T12:40:54;16.20;99.90
4687;DHT22;2357;47.316;-1.348;2023-03-23T12:49:11;16.10;99.90
4687;DHT22;2357;47.316;-1.348;2023-03-23T12:54:35;16.10;99.90
4687;DHT22;2357;47.316;-1.348;2023-03-23T12:57:20;16.20;99.90
4687;DHT22;2357;47.316;-1.348;2023-03-23T12:59:55;16.00;99.90
4687;DHT22;2357;47.316;-1.348;2023-03-23T13:02:31;15.90;99.90
4687;DHT22;2357;47.316;-1.348;2023-03-23T13:05:03;15.90;99.90
4687;DHT22;2357;47.316;-1.348;2023-03-23T13:07:44;15.70;99.90
4687;DHT22;2357;47.316;-1.348;2023-03-23T13:10:23;15.50;99.90
4687;DHT22;2357;47.316;-1.348;2023-03-23T13:12:52;15.70;99.90
4687;DHT22;2357;47.316;-1.348;2023-03-23T13:15:22;15.60;99.90
4687;DHT22;2357;47.316;-1.348;2023-03-23T13:23:14;15.50;99.90
4687;DHT22;2357;47.316;-1.348;2023-03-23T13:26:00;15.60;99.90
4687;DHT22;2357;47.316;-1.348;2023-03-23T13:28:29;15.60;99.90
4687;DHT22;2357;47.316;-1.348;2023-03-23T13:31:11;15.50;99.90
4687;DHT22;2357;47.316;-1.348;2023-03-23T13:33:37;15.30;99.90
4687;DHT22;2357;47.316;-1.348;2023-03-23T13:36:13;15.30;99.90
4687;DHT22;2357;47.316;-1.348;2023-03-23T13:38:46;15.30;99.90
4687;DHT22;2357;47.316;-1.348;2023-03-23T13:41:14;15.40;99.90
4687;DHT22;2357;47.316;-1.348;2023-03-23T13:43:42;15.20;99.90
4687;DHT22;2357;47.316;-1.348;2023-03-23T13:48:48;15.20;99.90
4687;DHT22;2357;47.316;-1.348;2023-03-23T14:01:53;14.80;99.90
4687;DHT22;2357;47.316;-1.348;2023-03-23T14:04:19;14.80;99.90
4687;DHT22;2357;47.316;-1.348;2023-03-23T14:06:49;14.70;99.90
4687;DHT22;2357;47.316;-1.348;2023-03-23T14:09:27;14.60;99.90
4687;DHT22;2357;47.316;-1.348;2023-03-23T14:14:29;14.60;99.90
4687;DHT22;2357;47.316;-1.348;2023-03-23T14:17:07;14.50;99.90
4687;DHT22;2357;47.316;-1.348;2023-03-23T14:19:38;14.40;99.90
4687;DHT22;2357;47.316;-1.348;2023-03-23T14:22:04;14.40;99.90
4687;DHT22;2357;47.316;-1.348;2023-03-23T14:24:32;14.40;99.90
4687;DHT22;2357;47.316;-1.348;2023-03-23T14:27:15;14.30;99.90
4687;DHT22;2357;47.316;-1.348;2023-03-23T14:29:42;14.30;99.90
4687;DHT22;2357;47.316;-1.348;2023-03-23T14:32:13;14.30;99.90
4687;DHT22;2357;47.316;-1.348;2023-03-23T14:34:39;14.40;99.90
4687;DHT22;2357;47.316;-1.348;2023-03-23T14:37:11;14.40;99.90
4687;DHT22;2357;47.316;-1.348;2023-03-23T14:39:38;14.40;99.90
4687;DHT22;2357;47.316;-1.348;2023-03-23T14:42:11;14.40;99.90
4687;DHT22;2357;47.316;-1.348;2023-03-23T14:44:41;14.30;99.90
4687;DHT22;2357;47.316;-1.348;2023-03-23T14:49:53;14.30;99.90
4687;DHT22;2357;47.316;-1.348;2023-03-23T14:52:22;14.20;99.90
4687;DHT22;2357;47.316;-1.348;2023-03-23T14:54:48;14.20;99.90
4687;DHT22;2357;47.316;-1.348;2023-03-23T14:57:16;14.20;99.90
4687;DHT22;2357;47.316;-1.348;2023-03-23T14:59:46;14.10;99.90
4687;DHT22;2357;47.316;-1.348;2023-03-23T15:02:27;14.20;99.90
4687;DHT22;2357;47.316;-1.348;2023-03-23T15:05:20;14.20;99.90
4687;DHT22;2357;47.316;-1.348;2023-03-23T15:07:46;14.10;99.90
4687;DHT22;2357;47.316;-1.348;2023-03-23T15:10:17;14.00;99.90
4687;DHT22;2357;47.316;-1.348;2023-03-23T15:12:46;13.90;99.90
4687;DHT22;2357;47.316;-1.348;2023-03-23T15:15:33;13.90;99.90
4687;DHT22;2357;47.316;-1.348;2023-03-23T15:18:00;13.80;99.90
4687;DHT22;2357;47.316;-1.348;2023-03-23T15:20:49;13.90;99.90
4687;DHT22;2357;47.316;-1.348;2023-03-23T15:23:25;13.80;99.90
4687;DHT22;2357;47.316;-1.348;2023-03-23T15:25:53;13.80;99.90
4687;DHT22;2357;47.316;-1.348;2023-03-23T15:28:21;13.60;99.90
4687;DHT22;2357;47.316;-1.348;2023-03-23T15:31:02;13.70;99.90
4687;DHT22;2357;47.316;-1.348;2023-03-23T15:33:34;13.70;99.90
4687;DHT22;2357;47.316;-1.348;2023-03-23T15:36:14;13.60;99.90
4687;DHT22;2357;47.316;-1.348;2023-03-23T15:38:43;13.60;99.90
4687;DHT22;2357;47.316;-1.348;2023-03-23T15:41:24;13.60;99.90
4687;DHT22;2357;47.316;-1.348;2023-03-23T15:43:52;13.60;99.90
4687;DHT22;2357;47.316;-1.348;2023-03-23T15:46:21;13.60;99.90
4687;DHT22;2357;47.316;-1.348;2023-03-23T15:48:53;13.60;99.90
4687;DHT22;2357;47.316;-1.348;2023-03-23T15:51:21;13.60;99.90
4687;DHT22;2357;47.316;-1.348;2023-03-23T15:53:49;13.50;99.90
4687;DHT22;2357;47.316;-1.348;2023-03-23T15:56:15;13.60;99.90
4687;DHT22;2357;47.316;-1.348;2023-03-23T15:58:41;13.50;99.90
4687;DHT22;2357;47.316;-1.348;2023-03-23T16:01:27;13.50;99.90
4687;DHT22;2357;47.316;-1.348;2023-03-23T16:04:05;13.60;99.90
4687;DHT22;2357;47.316;-1.348;2023-03-23T16:06:33;13.50;99.90
4687;DHT22;2357;47.316;-1.348;2023-03-23T16:09:00;13.50;99.90
4687;DHT22;2357;47.316;-1.348;2023-03-23T16:11:28;13.60;99.90
4687;DHT22;2357;47.316;-1.348;2023-03-23T16:13:54;13.50;99.90
4687;DHT22;2357;47.316;-1.348;2023-03-23T16:16:22;13.50;99.90
4687;DHT22;2357;47.316;-1.348;2023-03-23T16:18:49;13.50;99.90
4687;DHT22;2357;47.316;-1.348;2023-03-23T16:21:14;13.50;99.90
4687;DHT22;2357;47.316;-1.348;2023-03-23T16:23:40;13.50;99.90
4687;DHT22;2357;47.316;-1.348;2023-03-23T16:26:09;13.50;99.90
4687;DHT22;2357;47.316;-1.348;2023-03-23T16:28:35;13.50;99.90
4687;DHT22;2357;47.316;-1.348;2023-03-23T16:31:00;13.50;99.90
4687;DHT22;2357;47.316;-1.348;2023-03-23T16:33:26;13.50;99.90
4687;DHT22;2357;47.316;-1.348;2023-03-23T16:35:51;13.50;99.90
4687;DHT22;2357;47.316;-1.348;2023-03-23T16:38:17;13.50;99.90
4687;DHT22;2357;47.316;-1.348;2023-03-23T16:40:45;13.50;99.90
4687;DHT22;2357;47.316;-1.348;2023-03-23T16:43:11;13.50;99.90
4687;DHT22;2357;47.316;-1.348;2023-03-23T16:45:39;13.50;99.90
4687;DHT22;2357;47.316;-1.348;2023-03-23T16:48:05;13.40;99.90
4687;DHT22;2357;47.316;-1.348;2023-03-23T16:50:33;13.50;99.90
4687;DHT22;2357;47.316;-1.348;2023-03-23T16:52:59;13.40;99.90
4687;DHT22;2357;47.316;-1.348;2023-03-23T16:55:25;13.50;99.90
4687;DHT22;2357;47.316;-1.348;2023-03-23T16:57:52;13.40;99.90
4687;DHT22;2357;47.316;-1.348;2023-03-23T17:00:18;13.40;99.90
4687;DHT22;2357;47.316;-1.348;2023-03-23T17:02:49;13.40;99.90
4687;DHT22;2357;47.316;-1.348;2023-03-23T17:05:20;13.40;99.90
4687;DHT22;2357;47.316;-1.348;2023-03-23T17:07:47;13.50;99.90
4687;DHT22;2357;47.316;-1.348;2023-03-23T17:10:13;13.40;99.90
4687;DHT22;2357;47.316;-1.348;2023-03-23T17:12:40;13.40;99.90
4687;DHT22;2357;47.316;-1.348;2023-03-23T17:15:06;13.40;99.90
4687;DHT22;2357;47.316;-1.348;2023-03-23T17:17:33;13.40;99.90
4687;DHT22;2357;47.316;-1.348;2023-03-23T17:19:59;13.30;99.90
4687;DHT22;2357;47.316;-1.348;2023-03-23T17:22:25;13.40;99.90
4687;DHT22;2357;47.316;-1.348;2023-03-23T17:24:51;13.30;99.90
4687;DHT22;2357;47.316;-1.348;2023-03-23T17:27:18;13.30;99.90
4687;DHT22;2357;47.316;-1.348;2023-03-23T17:29:44;13.30;99.90
4687;DHT22;2357;47.316;-1.348;2023-03-23T17:32:10;13.30;99.90
4687;DHT22;2357;47.316;-1.348;2023-03-23T17:34:37;13.30;99.90